Sacramento, CA

5:42 AM PDT on August 27, 2014 (GMT -0700)
Sacramento International | Change Station
CLOSE
Current Station
Airport
Location: Sacramento International,
Elevation: 26 ft
Nearby Weather Stations

Elev 26 ft 38.70 °N, 121.59 °W | Updated 49 minutes ago

Clear
Clear
64 °F
Feels Like 64 °F
N
8
Wind Variable Wind from South

Today
High -- | Low -- °F
--% Chance of Precip.
Yesterday
High -- | Low -- °F
Precip. -- in
6:30 AM 7:43 PM
Waxing Crescent, 3% visible
Pressure 29.97 in
Visibility 10.0 miles
Clouds Clear
Dew Point 55 °F
Humidity 73%
Rainfall 0.00 in
Snow Depth Not available.
UV 0 out of 12
Pollen 8.60 out of 12
Ozone Good
PM2.5 Good
Flu Activity Not available.
METAR KSMF 271153Z 17007KT 10SM CLR 18/13 A2997 RMK AO2 SLP147 T01780128 10206 20178 52012

More Conditions Fewer Conditions

Pressure 29.97 in
Visibility 10.0 miles
Clouds Clear
Dew Point 55 °F
Humidity 73%
Rainfall 0.00 in
Snow Depth Not available.
UV 0 out of 12
Pollen 8.60 out of 12
Ozone Good
PM2.5 Good
Flu Activity Not available.
METAR KSMF 271153Z 17007KT 10SM CLR 18/13 A2997 RMK AO2 SLP147 T01780128 10206 20178 52012

More Conditions Fewer Conditions

10-Day Weather Forecast

Almanac

Astronomy

Aug. 27, 2014 Rise Set
Actual Time 6:30 AM PDT 7:43 PM PDT
Civil Twilight 6:03 AM PDT 8:10 PM PDT
Nautical Twilight 5:30 AM PDT 8:43 PM PDT
Astronomical Twilight 4:56 AM PDT 9:17 PM PDT
Moon 8:30 AM PDT 8:40 PM PDT
Length of Visible Light 14h 07m
Length of Day
13h 12m
Tomorrow will be 2m 22s shorter.
Waxing Crescent, 3% of the Moon is Illuminated
Today
Waxing Crescent
Sep 2
First Quarter
Sep 8
Full
Sep 15
Last Quarter
Sep 24
New

Today's Extremes

State Highs State Lows

Community

WunderPhotos

Upload Photos

1,747,676 photos uploaded!

Nearby

Air Quality

  Air Quality AQ Index Pollutant
Yesterday Moderate
OZONE
Yesterday Good
PM10
Current Good
PM2.5
Current Good
OZONE
Wednesday Moderate
OZONE
Thursday Moderate
OZONE
Friday Moderate
OZONE
Saturday Moderate
OZONE
Sunday Moderate
OZONE

Snow Depth

Station Depth Elevation
Squaw Valley 1 in 8200 ft
Rubicon #2 0 in 7500 ft
Echo Peak 1 in 7800 ft
CSS Lab 2 in 6900 ft
Fallen Leaf 0 in 6300 ft

Earthquake Activity

City Distance Mag. Time & Date
Napa, California 52 miles 2.5 10:56 AM PDT
2014-08-26
Napa, California 51 miles 3.0 6:45 AM PDT
2014-08-26
American Canyon, California 52 miles 2.8 6:12 AM PDT
2014-08-26
American Canyon, California 52 miles 2.7 5:35 AM PDT
2014-08-26
Minimum magnitude displayed is 2.5.

Coastal Water Temperatures

Place Temperature
No Stations Reporting

Nearby Weather Stations